Time;durP1;ratioP1;P1;durP2;ratioP2;P2;SDS_P1;SDS_P2;PMS_P1;PMS_P2;Temp;Humidity;BMP_temperature;BMP_pressure;BME280_temperature;BME280_humidity;BME280_pressure;Samples;Min_cycle;Max_cycle;Signal;HPM_P1;HPM_P2
2022/08/16 00:00:05;;;;;;;0.4;0.4;;;;;;;23.6;100.0;100300;;;;
2022/08/16 00:01:00;;;;;;;0.4;0.4;;;;;;;23.6;100.0;100300;;;;
2022/08/16 00:02:01;;;;;;;0.4;0.4;;;;;;;23.3;100.0;100300;;;;
2022/08/16 00:03:01;;;;;;;0.4;0.4;;;;;;;23.3;100.0;100300;;;;
2022/08/16 00:04:01;;;;;;;0.4;0.4;;;;;;;23.5;100.0;100300;;;;
2022/08/16 00:05:00;;;;;;;0.4;0.4;;;;;;;23.5;100.0;100300;;;;
2022/08/16 00:06:00;;;;;;;0.4;0.4;;;;;;;23.5;100.0;100300;;;;
2022/08/16 00:07:00;;;;;;;0.4;0.4;;;;;;;23.5;100.0;100300;;;;
2022/08/16 00:08:04;;;;;;;0.4;0.4;;;;;;;23.5;100.0;100300;;;;
2022/08/16 00:09:00;;;;;;;0.4;0.4;;;;;;;23.5;100.0;100300;;;;
2022/08/16 00:10:00;;;;;;;0.4;0.4;;;;;;;23.5;100.0;100300;;;;
2022/08/16 00:11:00;;;;;;;0.2;0.2;;;;;;;23.5;100.0;100300;;;;
2022/08/16 00:12:00;;;;;;;0.2;0.2;;;;;;;23.4;100.0;100300;;;;
2022/08/16 00:13:01;;;;;;;0.2;0.2;;;;;;;23.4;100.0;100300;;;;
2022/08/16 00:14:00;;;;;;;0.2;0.2;;;;;;;23.5;100.0;100300;;;;
2022/08/16 00:15:01;;;;;;;0.2;0.2;;;;;;;23.5;100.0;100300;;;;
2022/08/16 00:16:10;;;;;;;0.2;0.2;;;;;;;23.4;100.0;100300;;;;
2022/08/16 00:17:10;;;;;;;0.2;0.2;;;;;;;23.4;100.0;100300;;;;
2022/08/16 00:18:00;;;;;;;0.2;0.2;;;;;;;23.4;100.0;100300;;;;
2022/08/16 00:19:00;;;;;;;0.2;0.2;;;;;;;23.4;100.0;100300;;;;
2022/08/16 00:20:00;;;;;;;0.2;0.2;;;;;;;23.4;100.0;100310;;;;
2022/08/16 00:21:00;;;;;;;0.2;0.2;;;;;;;23.4;100.0;100310;;;;
2022/08/16 00:22:07;;;;;;;0.2;0.2;;;;;;;23.4;100.0;100310;;;;
2022/08/16 00:23:00;;;;;;;0.2;0.2;;;;;;;23.4;100.0;100310;;;;
2022/08/16 00:24:05;;;;;;;0.2;0.2;;;;;;;23.4;100.0;100320;;;;
2022/08/16 00:25:00;;;;;;;0.2;0.2;;;;;;;23.4;100.0;100320;;;;
2022/08/16 00:26:10;;;;;;;0.2;0.2;;;;;;;23.4;100.0;100320;;;;
2022/08/16 00:27:02;;;;;;;0.2;0.2;;;;;;;23.4;100.0;100320;;;;
2022/08/16 00:28:01;;;;;;;0.2;0.2;;;;;;;23.4;100.0;100320;;;;
2022/08/16 00:29:00;;;;;;;0.2;0.2;;;;;;;23.4;100.0;100320;;;;
2022/08/16 00:30:10;;;;;;;0.2;0.2;;;;;;;23.4;100.0;100320;;;;
2022/08/16 00:31:01;;;;;;;0.2;0.2;;;;;;;23.4;100.0;100320;;;;
2022/08/16 00:32:06;;;;;;;0.2;0.2;;;;;;;23.3;100.0;100330;;;;
2022/08/16 00:33:00;;;;;;;0.2;0.2;;;;;;;23.3;100.0;100330;;;;
2022/08/16 00:34:04;;;;;;;0.2;0.2;;;;;;;23.1;100.0;100330;;;;
2022/08/16 00:35:01;;;;;;;0.2;0.2;;;;;;;23.1;100.0;100330;;;;
2022/08/16 00:36:00;;;;;;;0.2;0.2;;;;;;;23.0;100.0;100320;;;;
2022/08/16 00:37:03;;;;;;;0.2;0.2;;;;;;;23.0;100.0;100320;;;;
2022/08/16 00:38:10;;;;;;;0.2;0.2;;;;;;;23.2;100.0;100320;;;;
2022/08/16 00:39:01;;;;;;;0.2;0.2;;;;;;;23.2;100.0;100320;;;;
2022/08/16 00:40:00;;;;;;;0.2;0.2;;;;;;;23.1;100.0;100320;;;;
2022/08/16 00:41:01;;;;;;;0.2;0.2;;;;;;;23.1;100.0;100320;;;;
2022/08/16 00:42:00;;;;;;;0.2;0.2;;;;;;;23.1;100.0;100330;;;;
2022/08/16 00:43:00;;;;;;;0.2;0.2;;;;;;;23.1;100.0;100330;;;;
2022/08/16 00:44:02;;;;;;;0.2;0.2;;;;;;;23.1;100.0;100330;;;;
2022/08/16 00:45:09;;;;;;;0.2;0.2;;;;;;;23.0;100.0;100320;;;;
2022/08/16 00:46:20;;;;;;;0.2;0.2;;;;;;;23.0;100.0;100320;;;;
2022/08/16 00:47:07;;;;;;;0.2;0.2;;;;;;;22.9;100.0;100320;;;;
2022/08/16 00:48:11;;;;;;;0.2;0.2;;;;;;;22.9;100.0;100320;;;;
2022/08/16 00:49:02;;;;;;;0.2;0.2;;;;;;;22.9;100.0;100320;;;;
2022/08/16 00:50:00;;;;;;;0.2;0.2;;;;;;;22.8;100.0;100320;;;;
2022/08/16 00:51:01;;;;;;;2.6;0.5;;;;;;;22.8;100.0;100320;;;;
2022/08/16 00:52:00;;;;;;;2.6;0.5;;;;;;;22.9;100.0;100320;;;;
2022/08/16 00:53:00;;;;;;;2.6;0.5;;;;;;;22.9;100.0;100320;;;;
2022/08/16 00:54:00;;;;;;;2.6;0.5;;;;;;;22.9;100.0;100320;;;;
2022/08/16 00:55:00;;;;;;;2.6;0.5;;;;;;;22.9;100.0;100320;;;;
2022/08/16 00:56:05;;;;;;;2.6;0.5;;;;;;;22.9;100.0;100330;;;;
2022/08/16 00:57:01;;;;;;;2.6;0.5;;;;;;;22.9;100.0;100330;;;;
2022/08/16 00:58:01;;;;;;;2.6;0.5;;;;;;;22.9;100.0;100330;;;;
2022/08/16 00:59:01;;;;;;;2.6;0.5;;;;;;;22.9;100.0;100330;;;;
2022/08/16 01:00:01;;;;;;;2.6;0.5;;;;;;;22.8;100.0;100330;;;;
2022/08/16 01:01:00;;;;;;;2.6;0.5;;;;;;;22.8;100.0;100330;;;;
2022/08/16 01:02:10;;;;;;;2.6;0.5;;;;;;;22.9;100.0;100330;;;;
2022/08/16 01:03:01;;;;;;;2.6;0.5;;;;;;;22.9;100.0;100330;;;;
2022/08/16 01:04:06;;;;;;;2.6;0.5;;;;;;;22.8;100.0;100330;;;;
2022/08/16 01:05:10;;;;;;;2.6;0.5;;;;;;;22.7;100.0;100330;;;;
2022/08/16 01:06:10;;;;;;;2.6;0.5;;;;;;;22.7;100.0;100330;;;;
2022/08/16 01:07:03;;;;;;;2.6;0.5;;;;;;;22.7;100.0;100330;;;;
2022/08/16 01:08:01;;;;;;;2.6;0.5;;;;;;;22.6;100.0;100330;;;;
2022/08/16 01:09:04;;;;;;;2.6;0.5;;;;;;;22.6;100.0;100330;;;;
2022/08/16 01:10:00;;;;;;;2.6;0.5;;;;;;;22.5;100.0;100330;;;;
2022/08/16 01:11:02;;;;;;;3.5;0.5;;;;;;;22.5;100.0;100330;;;;
2022/08/16 01:12:02;;;;;;;3.5;0.5;;;;;;;22.7;100.0;100330;;;;
2022/08/16 01:13:05;;;;;;;3.5;0.5;;;;;;;22.6;100.0;100330;;;;
2022/08/16 01:14:10;;;;;;;3.5;0.5;;;;;;;22.6;100.0;100330;;;;
2022/08/16 01:15:00;;;;;;;3.5;0.5;;;;;;;22.6;100.0;100330;;;;
2022/08/16 01:16:03;;;;;;;3.5;0.5;;;;;;;22.6;100.0;100330;;;;
2022/08/16 01:17:01;;;;;;;3.5;0.5;;;;;;;22.6;100.0;100330;;;;
2022/08/16 01:18:01;;;;;;;3.5;0.5;;;;;;;22.7;100.0;100330;;;;
2022/08/16 01:19:11;;;;;;;3.5;0.5;;;;;;;22.5;100.0;100330;;;;
2022/08/16 01:20:11;;;;;;;3.5;0.5;;;;;;;22.5;100.0;100330;;;;
2022/08/16 01:21:10;;;;;;;3.5;0.5;;;;;;;22.5;100.0;100320;;;;
2022/08/16 01:22:11;;;;;;;3.5;0.5;;;;;;;22.5;100.0;100320;;;;
2022/08/16 01:23:09;;;;;;;3.5;0.5;;;;;;;22.6;100.0;100320;;;;
2022/08/16 01:24:20;;;;;;;3.5;0.5;;;;;;;22.6;100.0;100320;;;;
2022/08/16 01:25:05;;;;;;;3.5;0.5;;;;;;;22.5;100.0;100320;;;;
2022/08/16 01:26:11;;;;;;;3.5;0.5;;;;;;;22.5;100.0;100320;;;;
2022/08/16 01:27:04;;;;;;;3.5;0.5;;;;;;;22.4;100.0;100330;;;;
2022/08/16 01:28:02;;;;;;;3.5;0.5;;;;;;;22.4;100.0;100330;;;;
2022/08/16 01:29:04;;;;;;;3.5;0.5;;;;;;;22.4;100.0;100330;;;;
2022/08/16 01:30:15;;;;;;;0.2;0.2;;;;;;;22.4;100.0;100330;;;;
2022/08/16 01:31:01;;;;;;;0.2;0.2;;;;;;;22.4;100.0;100330;;;;
2022/08/16 01:32:00;;;;;;;0.2;0.2;;;;;;;22.3;100.0;100330;;;;
2022/08/16 01:33:11;;;;;;;0.2;0.2;;;;;;;22.4;100.0;100320;;;;
2022/08/16 01:34:00;;;;;;;0.2;0.2;;;;;;;22.4;100.0;100320;;;;
2022/08/16 01:35:03;;;;;;;0.2;0.2;;;;;;;22.4;100.0;100320;;;;
2022/08/16 01:36:12;;;;;;;0.2;0.2;;;;;;;22.4;100.0;100320;;;;
2022/08/16 01:37:02;;;;;;;0.2;0.2;;;;;;;22.4;100.0;100320;;;;
2022/08/16 01:38:19;;;;;;;0.2;0.2;;;;;;;22.3;100.0;100320;;;;
2022/08/16 01:39:11;;;;;;;0.2;0.2;;;;;;;22.3;100.0;100320;;;;
2022/08/16 01:40:00;;;;;;;0.2;0.2;;;;;;;22.3;100.0;100320;;;;
2022/08/16 01:41:03;;;;;;;0.2;0.2;;;;;;;22.3;100.0;100320;;;;
2022/08/16 01:42:00;;;;;;;0.2;0.2;;;;;;;22.2;100.0;100320;;;;
2022/08/16 01:43:01;;;;;;;0.2;0.2;;;;;;;22.2;100.0;100320;;;;
2022/08/16 01:44:01;;;;;;;0.2;0.2;;;;;;;22.2;100.0;100320;;;;
2022/08/16 01:45:00;;;;;;;0.2;0.2;;;;;;;22.2;100.0;100320;;;;
2022/08/16 01:46:11;;;;;;;0.2;0.2;;;;;;;22.1;100.0;100320;;;;
2022/08/16 01:47:00;;;;;;;0.2;0.2;;;;;;;22.1;100.0;100320;;;;
2022/08/16 01:48:01;;;;;;;0.2;0.2;;;;;;;22.1;100.0;100320;;;;
2022/08/16 01:49:04;;;;;;;0.2;0.2;;;;;;;22.1;100.0;100320;;;;
2022/08/16 01:50:10;;;;;;;0.3;0.3;;;;;;;22.1;100.0;100310;;;;
2022/08/16 01:51:10;;;;;;;0.3;0.3;;;;;;;21.6;100.0;100320;;;;
2022/08/16 01:52:04;;;;;;;0.3;0.3;;;;;;;21.6;100.0;100320;;;;
2022/08/16 01:53:00;;;;;;;0.3;0.3;;;;;;;21.6;100.0;100320;;;;
2022/08/16 01:54:02;;;;;;;0.3;0.3;;;;;;;21.7;100.0;100320;;;;
2022/08/16 01:55:02;;;;;;;0.3;0.3;;;;;;;21.7;100.0;100320;;;;
2022/08/16 01:56:00;;;;;;;0.3;0.3;;;;;;;21.8;100.0;100320;;;;
2022/08/16 01:57:01;;;;;;;0.3;0.3;;;;;;;21.8;100.0;100320;;;;
2022/08/16 01:58:00;;;;;;;0.3;0.3;;;;;;;21.9;100.0;100320;;;;
2022/08/16 01:59:01;;;;;;;0.3;0.3;;;;;;;21.9;100.0;100320;;;;
2022/08/16 02:00:00;;;;;;;0.3;0.3;;;;;;;22.0;100.0;100320;;;;
2022/08/16 02:01:00;;;;;;;0.3;0.3;;;;;;;22.0;100.0;100320;;;;
2022/08/16 02:02:00;;;;;;;0.3;0.3;;;;;;;21.8;100.0;100330;;;;
2022/08/16 02:03:01;;;;;;;0.3;0.3;;;;;;;21.8;100.0;100330;;;;
2022/08/16 02:04:10;;;;;;;0.3;0.3;;;;;;;21.5;100.0;100330;;;;
2022/08/16 02:05:00;;;;;;;0.3;0.3;;;;;;;21.5;100.0;100330;;;;
2022/08/16 02:06:00;;;;;;;0.3;0.3;;;;;;;21.6;100.0;100330;;;;
2022/08/16 02:07:02;;;;;;;0.3;0.3;;;;;;;21.6;100.0;100330;;;;
2022/08/16 02:08:00;;;;;;;0.3;0.3;;;;;;;21.5;100.0;100320;;;;
2022/08/16 02:09:00;;;;;;;0.3;0.3;;;;;;;21.5;100.0;100320;;;;
2022/08/16 02:10:03;;;;;;;0.5;0.5;;;;;;;21.5;100.0;100320;;;;
2022/08/16 02:11:03;;;;;;;0.5;0.5;;;;;;;21.5;100.0;100320;;;;
2022/08/16 02:12:10;;;;;;;0.5;0.5;;;;;;;21.7;100.0;100320;;;;
2022/08/16 02:13:01;;;;;;;0.5;0.5;;;;;;;21.7;100.0;100320;;;;
2022/08/16 02:14:03;;;;;;;0.5;0.5;;;;;;;21.7;100.0;100320;;;;
2022/08/16 02:15:02;;;;;;;0.5;0.5;;;;;;;21.7;100.0;100320;;;;
2022/08/16 02:16:01;;;;;;;0.5;0.5;;;;;;;21.7;100.0;100330;;;;
2022/08/16 02:17:02;;;;;;;0.5;0.5;;;;;;;21.7;100.0;100330;;;;
2022/08/16 02:18:01;;;;;;;0.5;0.5;;;;;;;21.7;100.0;100330;;;;
2022/08/16 02:19:00;;;;;;;0.5;0.5;;;;;;;21.7;100.0;100330;;;;
2022/08/16 02:20:01;;;;;;;0.5;0.5;;;;;;;21.7;100.0;100320;;;;
2022/08/16 02:21:00;;;;;;;0.5;0.5;;;;;;;21.7;100.0;100320;;;;
2022/08/16 02:22:10;;;;;;;0.5;0.5;;;;;;;21.7;100.0;100320;;;;
2022/08/16 02:23:05;;;;;;;0.5;0.5;;;;;;;21.8;100.0;100320;;;;
2022/08/16 02:24:00;;;;;;;0.5;0.5;;;;;;;21.8;100.0;100320;;;;
2022/08/16 02:25:00;;;;;;;0.5;0.5;;;;;;;21.8;100.0;100320;;;;
2022/08/16 02:26:00;;;;;;;0.5;0.5;;;;;;;21.5;100.0;100320;;;;
2022/08/16 02:27:01;;;;;;;0.5;0.5;;;;;;;21.5;100.0;100320;;;;
2022/08/16 02:28:00;;;;;;;0.5;0.5;;;;;;;21.3;100.0;100310;;;;
2022/08/16 02:29:01;;;;;;;0.5;0.5;;;;;;;21.3;100.0;100310;;;;
2022/08/16 02:30:05;;;;;;;0.7;0.6;;;;;;;21.2;100.0;100320;;;;
2022/08/16 02:31:02;;;;;;;0.7;0.6;;;;;;;21.2;100.0;100320;;;;
2022/08/16 02:32:10;;;;;;;0.7;0.6;;;;;;;21.5;100.0;100320;;;;
2022/08/16 02:33:02;;;;;;;0.7;0.6;;;;;;;21.5;100.0;100320;;;;
2022/08/16 02:34:07;;;;;;;0.7;0.6;;;;;;;21.4;100.0;100320;;;;
2022/08/16 02:35:01;;;;;;;0.7;0.6;;;;;;;21.4;100.0;100320;;;;
2022/08/16 02:36:00;;;;;;;0.7;0.6;;;;;;;21.2;100.0;100320;;;;
2022/08/16 02:37:00;;;;;;;0.7;0.6;;;;;;;21.2;100.0;100320;;;;
2022/08/16 02:38:09;;;;;;;0.7;0.6;;;;;;;21.2;100.0;100320;;;;
2022/08/16 02:39:00;;;;;;;0.7;0.6;;;;;;;21.2;100.0;100320;;;;
2022/08/16 02:40:02;;;;;;;0.7;0.6;;;;;;;21.2;100.0;100320;;;;
2022/08/16 02:41:09;;;;;;;0.7;0.6;;;;;;;21.3;100.0;100320;;;;
2022/08/16 02:42:00;;;;;;;0.7;0.6;;;;;;;21.3;100.0;100320;;;;
2022/08/16 02:43:00;;;;;;;0.7;0.6;;;;;;;21.3;100.0;100320;;;;
2022/08/16 02:44:01;;;;;;;0.7;0.6;;;;;;;21.4;100.0;100320;;;;
2022/08/16 02:45:00;;;;;;;0.7;0.6;;;;;;;21.4;100.0;100320;;;;
2022/08/16 02:46:01;;;;;;;0.7;0.6;;;;;;;21.2;100.0;100320;;;;
2022/08/16 02:47:02;;;;;;;0.7;0.6;;;;;;;21.2;100.0;100320;;;;
2022/08/16 02:48:10;;;;;;;0.7;0.6;;;;;;;21.4;100.0;100320;;;;
2022/08/16 02:49:01;;;;;;;0.7;0.6;;;;;;;21.4;100.0;100320;;;;
2022/08/16 02:50:10;;;;;;;0.4;0.4;;;;;;;21.4;100.0;100320;;;;
2022/08/16 02:51:11;;;;;;;0.4;0.4;;;;;;;21.4;100.0;100320;;;;
2022/08/16 02:52:01;;;;;;;0.4;0.4;;;;;;;21.4;100.0;100320;;;;
2022/08/16 02:53:00;;;;;;;0.4;0.4;;;;;;;21.4;100.0;100320;;;;
2022/08/16 02:54:00;;;;;;;0.4;0.4;;;;;;;21.0;100.0;100320;;;;
2022/08/16 02:55:01;;;;;;;0.4;0.4;;;;;;;21.0;100.0;100320;;;;
2022/08/16 02:56:00;;;;;;;0.4;0.4;;;;;;;20.8;100.0;100320;;;;
2022/08/16 02:57:00;;;;;;;0.4;0.4;;;;;;;20.8;100.0;100320;;;;
2022/08/16 02:58:00;;;;;;;0.4;0.4;;;;;;;21.0;100.0;100320;;;;
2022/08/16 02:59:00;;;;;;;0.4;0.4;;;;;;;21.0;100.0;100320;;;;
2022/08/16 03:00:11;;;;;;;0.4;0.4;;;;;;;20.9;100.0;100320;;;;
2022/08/16 03:01:00;;;;;;;0.4;0.4;;;;;;;20.9;100.0;100320;;;;
2022/08/16 03:02:09;;;;;;;0.4;0.4;;;;;;;21.1;100.0;100320;;;;
2022/08/16 03:03:00;;;;;;;0.4;0.4;;;;;;;21.1;100.0;100320;;;;
2022/08/16 03:04:10;;;;;;;0.4;0.4;;;;;;;21.1;100.0;100310;;;;
2022/08/16 03:05:02;;;;;;;0.4;0.4;;;;;;;21.1;100.0;100310;;;;
2022/08/16 03:06:00;;;;;;;0.4;0.4;;;;;;;20.5;100.0;100310;;;;
2022/08/16 03:07:00;;;;;;;0.4;0.4;;;;;;;20.5;100.0;100310;;;;
2022/08/16 03:08:00;;;;;;;0.4;0.4;;;;;;;20.8;100.0;100310;;;;
2022/08/16 03:09:02;;;;;;;0.4;0.4;;;;;;;20.8;100.0;100310;;;;
2022/08/16 03:10:01;;;;;;;1.6;1.1;;;;;;;21.0;100.0;100310;;;;
2022/08/16 03:11:01;;;;;;;1.6;1.1;;;;;;;21.0;100.0;100310;;;;
2022/08/16 03:12:02;;;;;;;1.6;1.1;;;;;;;21.0;100.0;100310;;;;
2022/08/16 03:13:00;;;;;;;1.6;1.1;;;;;;;21.0;100.0;100310;;;;
2022/08/16 03:14:00;;;;;;;1.6;1.1;;;;;;;21.0;100.0;100310;;;;
2022/08/16 03:15:00;;;;;;;1.6;1.1;;;;;;;21.0;100.0;100310;;;;
2022/08/16 03:16:00;;;;;;;1.6;1.1;;;;;;;20.7;100.0;100300;;;;
2022/08/16 03:17:02;;;;;;;1.6;1.1;;;;;;;20.7;100.0;100300;;;;
2022/08/16 03:18:02;;;;;;;1.6;1.1;;;;;;;20.9;100.0;100300;;;;
2022/08/16 03:19:01;;;;;;;1.6;1.1;;;;;;;20.9;100.0;100300;;;;
2022/08/16 03:20:03;;;;;;;1.6;1.1;;;;;;;21.0;100.0;100300;;;;
2022/08/16 03:21:00;;;;;;;1.6;1.1;;;;;;;21.0;100.0;100300;;;;
2022/08/16 03:22:01;;;;;;;1.6;1.1;;;;;;;20.9;100.0;100300;;;;
2022/08/16 03:23:02;;;;;;;1.6;1.1;;;;;;;20.9;100.0;100300;;;;
2022/08/16 03:24:01;;;;;;;1.6;1.1;;;;;;;20.9;100.0;100300;;;;
2022/08/16 03:25:01;;;;;;;1.6;1.1;;;;;;;20.9;100.0;100300;;;;
2022/08/16 03:26:00;;;;;;;1.6;1.1;;;;;;;20.9;100.0;100300;;;;
2022/08/16 03:27:03;;;;;;;1.6;1.1;;;;;;;20.9;100.0;100300;;;;
2022/08/16 03:28:00;;;;;;;1.6;1.1;;;;;;;20.9;100.0;100300;;;;
2022/08/16 03:29:00;;;;;;;1.6;1.1;;;;;;;20.9;100.0;100300;;;;
2022/08/16 03:30:02;;;;;;;0.1;0.1;;;;;;;20.9;100.0;100310;;;;
2022/08/16 03:31:01;;;;;;;0.1;0.1;;;;;;;20.9;100.0;100310;;;;
2022/08/16 03:32:02;;;;;;;0.1;0.1;;;;;;;20.9;100.0;100310;;;;
2022/08/16 03:33:01;;;;;;;0.1;0.1;;;;;;;20.9;100.0;100310;;;;
2022/08/16 03:34:00;;;;;;;0.1;0.1;;;;;;;20.8;100.0;100310;;;;
2022/08/16 03:35:00;;;;;;;0.1;0.1;;;;;;;20.8;100.0;100310;;;;
2022/08/16 03:36:10;;;;;;;0.1;0.1;;;;;;;20.9;100.0;100310;;;;
2022/08/16 03:37:00;;;;;;;0.1;0.1;;;;;;;20.9;100.0;100310;;;;
2022/08/16 03:38:04;;;;;;;0.1;0.1;;;;;;;20.7;100.0;100310;;;;
2022/08/16 03:39:03;;;;;;;0.1;0.1;;;;;;;20.7;100.0;100310;;;;
2022/08/16 03:40:03;;;;;;;0.1;0.1;;;;;;;20.5;100.0;100310;;;;
2022/08/16 03:41:03;;;;;;;0.1;0.1;;;;;;;20.5;100.0;100310;;;;
2022/08/16 03:42:00;;;;;;;0.1;0.1;;;;;;;20.7;100.0;100310;;;;
2022/08/16 03:43:11;;;;;;;0.1;0.1;;;;;;;20.4;100.0;100310;;;;
2022/08/16 03:44:00;;;;;;;0.1;0.1;;;;;;;20.4;100.0;100310;;;;
2022/08/16 03:45:04;;;;;;;0.1;0.1;;;;;;;20.5;100.0;100320;;;;
2022/08/16 03:46:04;;;;;;;0.1;0.1;;;;;;;20.5;100.0;100320;;;;
2022/08/16 03:47:01;;;;;;;0.1;0.1;;;;;;;20.5;100.0;100320;;;;
2022/08/16 03:48:07;;;;;;;0.1;0.1;;;;;;;20.6;100.0;100320;;;;
2022/08/16 03:49:00;;;;;;;0.1;0.1;;;;;;;20.6;100.0;100320;;;;
2022/08/16 03:50:03;;;;;;;0.4;0.4;;;;;;;20.6;100.0;100320;;;;
2022/08/16 03:51:01;;;;;;;0.4;0.4;;;;;;;20.6;100.0;100320;;;;
2022/08/16 03:52:00;;;;;;;0.4;0.4;;;;;;;20.5;100.0;100330;;;;
2022/08/16 03:53:05;;;;;;;0.4;0.4;;;;;;;20.0;100.0;100340;;;;
2022/08/16 03:54:01;;;;;;;0.4;0.4;;;;;;;20.0;100.0;100340;;;;
2022/08/16 03:55:01;;;;;;;0.4;0.4;;;;;;;20.0;100.0;100340;;;;
2022/08/16 03:56:00;;;;;;;0.4;0.4;;;;;;;20.3;100.0;100340;;;;
2022/08/16 03:57:00;;;;;;;0.4;0.4;;;;;;;20.3;100.0;100340;;;;
2022/08/16 03:58:00;;;;;;;0.4;0.4;;;;;;;20.3;100.0;100330;;;;
2022/08/16 03:59:00;;;;;;;0.4;0.4;;;;;;;20.3;100.0;100330;;;;
2022/08/16 04:00:11;;;;;;;0.4;0.4;;;;;;;20.3;100.0;100330;;;;
2022/08/16 04:01:00;;;;;;;0.4;0.4;;;;;;;20.3;100.0;100330;;;;
2022/08/16 04:02:01;;;;;;;0.4;0.4;;;;;;;20.5;100.0;100330;;;;
2022/08/16 04:03:05;;;;;;;0.4;0.4;;;;;;;20.5;100.0;100330;;;;
2022/08/16 04:04:00;;;;;;;0.4;0.4;;;;;;;20.4;100.0;100330;;;;
2022/08/16 04:05:02;;;;;;;0.4;0.4;;;;;;;20.4;100.0;100330;;;;
2022/08/16 04:06:02;;;;;;;0.4;0.4;;;;;;;20.4;100.0;100340;;;;
2022/08/16 04:07:03;;;;;;;0.4;0.4;;;;;;;20.4;100.0;100340;;;;
2022/08/16 04:08:10;;;;;;;0.4;0.4;;;;;;;20.4;100.0;100340;;;;
2022/08/16 04:09:00;;;;;;;0.4;0.4;;;;;;;20.4;100.0;100340;;;;
2022/08/16 04:10:10;;;;;;;0.9;0.9;;;;;;;20.5;100.0;100350;;;;
2022/08/16 04:11:00;;;;;;;0.9;0.9;;;;;;;20.5;100.0;100350;;;;
2022/08/16 04:12:00;;;;;;;0.9;0.9;;;;;;;20.5;100.0;100350;;;;
2022/08/16 04:13:10;;;;;;;0.9;0.9;;;;;;;20.4;100.0;100350;;;;
2022/08/16 04:14:10;;;;;;;0.9;0.9;;;;;;;20.4;100.0;100350;;;;
2022/08/16 04:15:02;;;;;;;0.9;0.9;;;;;;;20.4;100.0;100350;;;;
2022/08/16 04:16:01;;;;;;;0.9;0.9;;;;;;;20.3;100.0;100360;;;;
2022/08/16 04:17:01;;;;;;;0.9;0.9;;;;;;;20.3;100.0;100360;;;;
2022/08/16 04:18:00;;;;;;;0.9;0.9;;;;;;;20.2;100.0;100360;;;;
2022/08/16 04:19:04;;;;;;;0.9;0.9;;;;;;;20.4;100.0;100360;;;;
2022/08/16 04:20:01;;;;;;;0.9;0.9;;;;;;;20.4;100.0;100360;;;;
2022/08/16 04:21:00;;;;;;;0.9;0.9;;;;;;;20.4;100.0;100360;;;;
2022/08/16 04:22:01;;;;;;;0.9;0.9;;;;;;;20.2;100.0;100360;;;;
2022/08/16 04:23:01;;;;;;;0.9;0.9;;;;;;;20.2;100.0;100360;;;;
2022/08/16 04:24:00;;;;;;;0.9;0.9;;;;;;;20.4;100.0;100350;;;;
2022/08/16 04:25:00;;;;;;;0.9;0.9;;;;;;;20.4;100.0;100350;;;;
2022/08/16 04:26:02;;;;;;;0.9;0.9;;;;;;;20.4;100.0;100360;;;;
2022/08/16 04:27:00;;;;;;;0.9;0.9;;;;;;;20.4;100.0;100360;;;;
2022/08/16 04:28:10;;;;;;;0.9;0.9;;;;;;;20.2;100.0;100360;;;;
2022/08/16 04:29:10;;;;;;;0.9;0.9;;;;;;;20.2;100.0;100370;;;;
2022/08/16 04:30:03;;;;;;;0.7;0.7;;;;;;;20.2;100.0;100370;;;;
2022/08/16 04:31:00;;;;;;;0.7;0.7;;;;;;;20.2;100.0;100370;;;;
2022/08/16 04:32:02;;;;;;;0.7;0.7;;;;;;;20.2;100.0;100360;;;;
2022/08/16 04:33:00;;;;;;;0.7;0.7;;;;;;;20.2;100.0;100360;;;;
2022/08/16 04:34:00;;;;;;;0.7;0.7;;;;;;;20.3;100.0;100360;;;;
2022/08/16 04:35:06;;;;;;;0.7;0.7;;;;;;;20.3;100.0;100370;;;;
2022/08/16 04:36:00;;;;;;;0.7;0.7;;;;;;;20.3;100.0;100370;;;;
2022/08/16 04:37:01;;;;;;;0.7;0.7;;;;;;;20.3;100.0;100370;;;;
2022/08/16 04:38:10;;;;;;;0.7;0.7;;;;;;;20.3;100.0;100360;;;;
2022/08/16 04:39:00;;;;;;;0.7;0.7;;;;;;;20.3;100.0;100360;;;;
2022/08/16 04:40:06;;;;;;;0.7;0.7;;;;;;;20.3;100.0;100360;;;;
2022/08/16 04:41:00;;;;;;;0.7;0.7;;;;;;;20.3;100.0;100360;;;;
2022/08/16 04:42:10;;;;;;;0.7;0.7;;;;;;;20.3;100.0;100360;;;;
2022/08/16 04:43:00;;;;;;;0.7;0.7;;;;;;;20.3;100.0;100360;;;;
2022/08/16 04:44:00;;;;;;;0.7;0.7;;;;;;;20.0;100.0;100370;;;;
2022/08/16 04:45:03;;;;;;;0.7;0.7;;;;;;;20.0;100.0;100370;;;;
2022/08/16 04:46:03;;;;;;;0.7;0.7;;;;;;;19.9;100.0;100370;;;;
2022/08/16 04:47:10;;;;;;;0.7;0.7;;;;;;;20.1;100.0;100370;;;;
2022/08/16 04:48:01;;;;;;;0.7;0.7;;;;;;;20.1;100.0;100370;;;;
2022/08/16 04:49:00;;;;;;;0.7;0.7;;;;;;;20.1;100.0;100370;;;;
2022/08/16 04:50:01;;;;;;;0.5;0.5;;;;;;;20.1;100.0;100360;;;;
2022/08/16 04:51:00;;;;;;;0.5;0.5;;;;;;;20.1;100.0;100360;;;;
2022/08/16 04:52:00;;;;;;;0.5;0.5;;;;;;;20.1;100.0;100370;;;;
2022/08/16 04:53:00;;;;;;;0.5;0.5;;;;;;;20.1;100.0;100370;;;;
2022/08/16 04:54:00;;;;;;;0.5;0.5;;;;;;;20.2;100.0;100370;;;;
2022/08/16 04:55:00;;;;;;;0.5;0.5;;;;;;;20.2;100.0;100370;;;;
2022/08/16 04:56:00;;;;;;;0.5;0.5;;;;;;;20.3;100.0;100370;;;;
2022/08/16 04:57:00;;;;;;;0.5;0.5;;;;;;;20.3;100.0;100370;;;;
2022/08/16 04:58:01;;;;;;;0.5;0.5;;;;;;;20.2;100.0;100370;;;;
2022/08/16 04:59:01;;;;;;;0.5;0.5;;;;;;;20.2;100.0;100370;;;;
2022/08/16 05:00:11;;;;;;;0.5;0.5;;;;;;;20.0;100.0;100370;;;;
2022/08/16 05:01:00;;;;;;;0.5;0.5;;;;;;;20.0;100.0;100370;;;;
2022/08/16 05:02:01;;;;;;;0.5;0.5;;;;;;;20.1;100.0;100370;;;;
2022/08/16 05:03:07;;;;;;;0.5;0.5;;;;;;;20.2;100.0;100370;;;;
2022/08/16 05:04:01;;;;;;;0.5;0.5;;;;;;;20.2;100.0;100370;;;;
2022/08/16 05:05:00;;;;;;;0.5;0.5;;;;;;;20.2;100.0;100370;;;;
2022/08/16 05:06:09;;;;;;;0.5;0.5;;;;;;;20.1;100.0;100370;;;;
2022/08/16 05:07:00;;;;;;;0.5;0.5;;;;;;;20.1;100.0;100370;;;;
2022/08/16 05:08:00;;;;;;;0.5;0.5;;;;;;;20.2;100.0;100380;;;;
2022/08/16 05:09:00;;;;;;;0.5;0.5;;;;;;;20.2;100.0;100380;;;;
2022/08/16 05:10:01;;;;;;;0.3;0.3;;;;;;;20.2;100.0;100380;;;;
2022/08/16 05:11:05;;;;;;;0.3;0.3;;;;;;;20.3;100.0;100380;;;;
2022/08/16 05:12:00;;;;;;;0.3;0.3;;;;;;;20.3;100.0;100380;;;;
2022/08/16 05:13:02;;;;;;;0.3;0.3;;;;;;;20.3;100.0;100380;;;;
2022/08/16 05:14:07;;;;;;;0.3;0.3;;;;;;;20.2;100.0;100380;;;;
2022/08/16 05:15:02;;;;;;;0.3;0.3;;;;;;;20.2;100.0;100380;;;;
2022/08/16 05:16:00;;;;;;;0.3;0.3;;;;;;;20.2;100.0;100380;;;;
2022/08/16 05:17:00;;;;;;;0.3;0.3;;;;;;;20.2;100.0;100380;;;;
2022/08/16 05:18:03;;;;;;;0.3;0.3;;;;;;;20.1;100.0;100390;;;;
2022/08/16 05:19:01;;;;;;;0.3;0.3;;;;;;;20.1;100.0;100390;;;;
2022/08/16 05:20:00;;;;;;;0.3;0.3;;;;;;;20.1;100.0;100390;;;;
2022/08/16 05:21:09;;;;;;;0.3;0.3;;;;;;;20.2;100.0;100380;;;;
2022/08/16 05:22:00;;;;;;;0.3;0.3;;;;;;;20.2;100.0;100380;;;;
2022/08/16 05:23:00;;;;;;;0.3;0.3;;;;;;;20.2;100.0;100380;;;;
2022/08/16 05:24:02;;;;;;;0.3;0.3;;;;;;;20.0;100.0;100380;;;;
2022/08/16 05:25:00;;;;;;;0.3;0.3;;;;;;;20.0;100.0;100380;;;;
2022/08/16 05:26:00;;;;;;;0.3;0.3;;;;;;;19.9;100.0;100380;;;;
2022/08/16 05:27:10;;;;;;;0.3;0.3;;;;;;;19.9;100.0;100390;;;;
2022/08/16 05:28:00;;;;;;;0.3;0.3;;;;;;;19.9;100.0;100390;;;;
2022/08/16 05:29:06;;;;;;;0.3;0.3;;;;;;;20.1;100.0;100390;;;;
2022/08/16 05:30:12;;;;;;;0.6;0.6;;;;;;;20.1;100.0;100390;;;;
2022/08/16 05:31:00;;;;;;;0.6;0.6;;;;;;;20.1;100.0;100390;;;;
2022/08/16 05:32:00;;;;;;;0.6;0.6;;;;;;;20.1;100.0;100390;;;;
2022/08/16 05:33:00;;;;;;;0.6;0.6;;;;;;;20.1;100.0;100390;;;;
2022/08/16 05:34:03;;;;;;;0.6;0.6;;;;;;;20.0;100.0;100390;;;;
2022/08/16 05:35:00;;;;;;;0.6;0.6;;;;;;;20.0;100.0;100390;;;;
2022/08/16 05:36:03;;;;;;;0.6;0.6;;;;;;;20.1;100.0;100390;;;;
2022/08/16 05:37:00;;;;;;;0.6;0.6;;;;;;;20.1;100.0;100390;;;;
2022/08/16 05:38:00;;;;;;;0.6;0.6;;;;;;;20.2;100.0;100390;;;;
2022/08/16 05:39:02;;;;;;;0.6;0.6;;;;;;;20.2;100.0;100390;;;;
2022/08/16 05:40:06;;;;;;;0.6;0.6;;;;;;;20.2;100.0;100400;;;;
2022/08/16 05:41:02;;;;;;;0.6;0.6;;;;;;;20.2;100.0;100400;;;;
2022/08/16 05:42:00;;;;;;;0.6;0.6;;;;;;;20.2;100.0;100400;;;;
2022/08/16 05:43:03;;;;;;;0.6;0.6;;;;;;;20.2;100.0;100400;;;;
2022/08/16 05:44:05;;;;;;;0.6;0.6;;;;;;;20.2;100.0;100410;;;;
2022/08/16 05:45:00;;;;;;;0.6;0.6;;;;;;;20.2;100.0;100410;;;;
2022/08/16 05:46:00;;;;;;;0.6;0.6;;;;;;;20.3;100.0;100410;;;;
2022/08/16 05:47:00;;;;;;;0.6;0.6;;;;;;;20.3;100.0;100410;;;;
2022/08/16 05:48:01;;;;;;;0.6;0.6;;;;;;;20.3;100.0;100410;;;;
2022/08/16 05:49:09;;;;;;;0.6;0.6;;;;;;;20.5;100.0;100410;;;;
2022/08/16 05:50:02;;;;;;;0.6;0.6;;;;;;;20.5;100.0;100410;;;;
2022/08/16 05:51:00;;;;;;;0.6;0.6;;;;;;;20.5;100.0;100410;;;;
2022/08/16 05:52:00;;;;;;;0.6;0.6;;;;;;;20.5;100.0;100410;;;;
2022/08/16 05:53:01;;;;;;;0.6;0.6;;;;;;;20.5;100.0;100410;;;;
2022/08/16 05:54:00;;;;;;;0.6;0.6;;;;;;;20.5;100.0;100410;;;;
2022/08/16 05:55:01;;;;;;;0.6;0.6;;;;;;;20.5;100.0;100410;;;;
2022/08/16 05:56:00;;;;;;;0.6;0.6;;;;;;;20.5;100.0;100410;;;;
2022/08/16 05:57:00;;;;;;;0.6;0.6;;;;;;;20.5;100.0;100410;;;;
2022/08/16 05:58:00;;;;;;;0.6;0.6;;;;;;;20.6;100.0;100410;;;;
2022/08/16 05:59:01;;;;;;;0.6;0.6;;;;;;;20.6;100.0;100410;;;;
2022/08/16 06:00:07;;;;;;;0.6;0.6;;;;;;;20.7;100.0;100410;;;;
2022/08/16 06:01:00;;;;;;;0.6;0.6;;;;;;;20.7;100.0;100410;;;;
2022/08/16 06:02:00;;;;;;;0.6;0.6;;;;;;;20.6;100.0;100410;;;;
2022/08/16 06:03:00;;;;;;;0.6;0.6;;;;;;;20.6;100.0;100410;;;;
2022/08/16 06:04:00;;;;;;;0.6;0.6;;;;;;;20.6;100.0;100410;;;;
2022/08/16 06:05:02;;;;;;;0.6;0.6;;;;;;;20.6;100.0;100410;;;;
2022/08/16 06:06:00;;;;;;;0.6;0.6;;;;;;;20.6;100.0;100410;;;;
2022/08/16 06:07:06;;;;;;;0.6;0.6;;;;;;;20.6;100.0;100420;;;;
2022/08/16 06:08:00;;;;;;;0.6;0.6;;;;;;;20.6;100.0;100420;;;;
2022/08/16 06:09:00;;;;;;;0.6;0.6;;;;;;;20.6;100.0;100420;;;;
2022/08/16 06:10:00;;;;;;;1.1;1.1;;;;;;;20.7;100.0;100420;;;;
2022/08/16 06:11:10;;;;;;;1.1;1.1;;;;;;;20.8;100.0;100420;;;;
2022/08/16 06:12:00;;;;;;;1.1;1.1;;;;;;;20.8;100.0;100420;;;;
2022/08/16 06:13:00;;;;;;;1.1;1.1;;;;;;;20.8;100.0;100420;;;;
2022/08/16 06:14:01;;;;;;;1.1;1.1;;;;;;;20.9;100.0;100420;;;;
2022/08/16 06:15:08;;;;;;;1.1;1.1;;;;;;;20.8;100.0;100410;;;;
2022/08/16 06:16:00;;;;;;;1.1;1.1;;;;;;;20.8;100.0;100410;;;;
2022/08/16 06:17:05;;;;;;;1.1;1.1;;;;;;;20.8;100.0;100410;;;;
2022/08/16 06:18:00;;;;;;;1.1;1.1;;;;;;;20.8;100.0;100410;;;;
2022/08/16 06:19:05;;;;;;;1.1;1.1;;;;;;;20.8;100.0;100420;;;;
2022/08/16 06:20:00;;;;;;;1.1;1.1;;;;;;;20.8;100.0;100420;;;;
2022/08/16 06:21:00;;;;;;;1.1;1.1;;;;;;;20.8;100.0;100420;;;;
2022/08/16 06:22:00;;;;;;;1.1;1.1;;;;;;;21.0;100.0;100420;;;;